sensor_id;sensor_type;location;lat;lon;timestamp;temperature;humidity
10046;DHT22;5063;50.878;4.742;2023-02-28T00:01:12;-0.10;99.90
10046;DHT22;5063;50.878;4.742;2023-02-28T00:03:37;-0.70;99.90
10046;DHT22;5063;50.878;4.742;2023-02-28T00:06:04;-0.20;99.90
10046;DHT22;5063;50.878;4.742;2023-02-28T00:08:31;-0.10;99.90
10046;DHT22;5063;50.878;4.742;2023-02-28T00:11:01;-0.20;99.90
10046;DHT22;5063;50.878;4.742;2023-02-28T00:13:28;-0.10;99.90
10046;DHT22;5063;50.878;4.742;2023-02-28T00:16:07;0.00;99.90
10046;DHT22;5063;50.878;4.742;2023-02-28T00:18:33;0.30;99.90
10046;DHT22;5063;50.878;4.742;2023-02-28T00:20:59;0.00;99.90
10046;DHT22;5063;50.878;4.742;2023-02-28T00:23:26;0.00;99.90
10046;DHT22;5063;50.878;4.742;2023-02-28T00:25:52;0.00;99.90
10046;DHT22;5063;50.878;4.742;2023-02-28T00:28:18;0.20;99.90
10046;DHT22;5063;50.878;4.742;2023-02-28T00:30:44;0.00;99.90
10046;DHT22;5063;50.878;4.742;2023-02-28T00:33:10;0.20;99.90
10046;DHT22;5063;50.878;4.742;2023-02-28T00:35:36;0.00;99.90
10046;DHT22;5063;50.878;4.742;2023-02-28T00:38:01;0.00;99.90
10046;DHT22;5063;50.878;4.742;2023-02-28T00:40:28;0.00;99.90
10046;DHT22;5063;50.878;4.742;2023-02-28T00:42:53;0.00;99.90
10046;DHT22;5063;50.878;4.742;2023-02-28T00:45:19;0.10;99.90
10046;DHT22;5063;50.878;4.742;2023-02-28T00:47:45;0.00;99.90
10046;DHT22;5063;50.878;4.742;2023-02-28T00:50:12;-0.10;99.90
10046;DHT22;5063;50.878;4.742;2023-02-28T00:52:38;-0.20;99.90
10046;DHT22;5063;50.878;4.742;2023-02-28T00:55:04;-0.10;99.90
10046;DHT22;5063;50.878;4.742;2023-02-28T00:57:30;-0.10;99.90
10046;DHT22;5063;50.878;4.742;2023-02-28T00:59:55;-0.10;99.90
10046;DHT22;5063;50.878;4.742;2023-02-28T01:02:22;-0.20;99.90
10046;DHT22;5063;50.878;4.742;2023-02-28T01:04:48;-0.10;99.90
10046;DHT22;5063;50.878;4.742;2023-02-28T01:07:14;-0.20;99.90
10046;DHT22;5063;50.878;4.742;2023-02-28T01:09:40;-0.90;99.90
10046;DHT22;5063;50.878;4.742;2023-02-28T01:12:07;-0.40;99.90
10046;DHT22;5063;50.878;4.742;2023-02-28T01:14:34;-0.60;99.90
10046;DHT22;5063;50.878;4.742;2023-02-28T01:17:00;-0.70;99.90
10046;DHT22;5063;50.878;4.742;2023-02-28T01:19:26;-0.70;99.90
10046;DHT22;5063;50.878;4.742;2023-02-28T01:21:52;-0.90;99.90
10046;DHT22;5063;50.878;4.742;2023-02-28T01:24:18;-0.70;99.90
10046;DHT22;5063;50.878;4.742;2023-02-28T01:26:43;-1.50;99.90
10046;DHT22;5063;50.878;4.742;2023-02-28T01:29:09;-0.80;99.90
10046;DHT22;5063;50.878;4.742;2023-02-28T01:31:35;-0.80;99.90
10046;DHT22;5063;50.878;4.742;2023-02-28T01:34:01;-0.70;99.90
10046;DHT22;5063;50.878;4.742;2023-02-28T01:36:27;-0.90;99.90
10046;DHT22;5063;50.878;4.742;2023-02-28T01:38:53;-1.00;99.90
10046;DHT22;5063;50.878;4.742;2023-02-28T01:46:11;-0.70;99.90
10046;DHT22;5063;50.878;4.742;2023-02-28T01:48:48;-0.70;99.90
10046;DHT22;5063;50.878;4.742;2023-02-28T01:51:41;-0.60;99.90
10046;DHT22;5063;50.878;4.742;2023-02-28T01:54:14;-0.60;99.90
10046;DHT22;5063;50.878;4.742;2023-02-28T01:56:46;-0.70;99.90
10046;DHT22;5063;50.878;4.742;2023-02-28T01:59:16;-0.40;99.90
10046;DHT22;5063;50.878;4.742;2023-02-28T02:01:43;-0.50;99.90
10046;DHT22;5063;50.878;4.742;2023-02-28T02:04:09;-0.40;99.90
10046;DHT22;5063;50.878;4.742;2023-02-28T02:06:40;-0.50;99.90
10046;DHT22;5063;50.878;4.742;2023-02-28T02:09:08;-0.40;99.90
10046;DHT22;5063;50.878;4.742;2023-02-28T02:11:34;-0.60;99.90
10046;DHT22;5063;50.878;4.742;2023-02-28T02:14:31;-0.80;99.90
10046;DHT22;5063;50.878;4.742;2023-02-28T02:17:26;-0.40;99.90
10046;DHT22;5063;50.878;4.742;2023-02-28T02:20:30;-0.80;99.90
10046;DHT22;5063;50.878;4.742;2023-02-28T02:26:14;-0.60;99.90
10046;DHT22;5063;50.878;4.742;2023-02-28T02:34:38;-0.90;99.90
10046;DHT22;5063;50.878;4.742;2023-02-28T02:42:51;-0.80;99.90
10046;DHT22;5063;50.878;4.742;2023-02-28T02:45:19;-1.10;99.90
10046;DHT22;5063;50.878;4.742;2023-02-28T02:47:48;-1.20;99.90
10046;DHT22;5063;50.878;4.742;2023-02-28T02:50:26;-1.30;99.90
10046;DHT22;5063;50.878;4.742;2023-02-28T02:52:57;-1.10;99.90
10046;DHT22;5063;50.878;4.742;2023-02-28T02:55:24;-1.30;99.90
10046;DHT22;5063;50.878;4.742;2023-02-28T02:57:54;-1.40;99.90
10046;DHT22;5063;50.878;4.742;2023-02-28T03:00:25;-1.20;99.90
10046;DHT22;5063;50.878;4.742;2023-02-28T03:02:53;-1.40;99.90
10046;DHT22;5063;50.878;4.742;2023-02-28T03:05:35;-1.10;99.90
10046;DHT22;5063;50.878;4.742;2023-02-28T03:08:05;-1.40;99.90
10046;DHT22;5063;50.878;4.742;2023-02-28T03:10:40;-1.30;99.90
10046;DHT22;5063;50.878;4.742;2023-02-28T03:15:50;-1.30;99.90
10046;DHT22;5063;50.878;4.742;2023-02-28T03:18:58;-1.30;99.90
10046;DHT22;5063;50.878;4.742;2023-02-28T03:24:08;-1.50;99.90
10046;DHT22;5063;50.878;4.742;2023-02-28T03:26:40;-1.60;99.90
10046;DHT22;5063;50.878;4.742;2023-02-28T03:29:22;-1.50;99.90
10046;DHT22;5063;50.878;4.742;2023-02-28T03:34:34;-1.60;99.90
10046;DHT22;5063;50.878;4.742;2023-02-28T03:37:12;-1.60;99.90
10046;DHT22;5063;50.878;4.742;2023-02-28T03:39:44;-1.50;99.90
10046;DHT22;5063;50.878;4.742;2023-02-28T03:42:16;-1.70;99.90
10046;DHT22;5063;50.878;4.742;2023-02-28T03:45:00;-1.50;99.90
10046;DHT22;5063;50.878;4.742;2023-02-28T03:47:40;-1.40;99.90
10046;DHT22;5063;50.878;4.742;2023-02-28T03:52:47;-1.40;99.90
10046;DHT22;5063;50.878;4.742;2023-02-28T03:55:16;-1.40;99.90
10046;DHT22;5063;50.878;4.742;2023-02-28T03:58:30;-1.40;99.90
10046;DHT22;5063;50.878;4.742;2023-02-28T04:01:25;-1.20;99.90
10046;DHT22;5063;50.878;4.742;2023-02-28T04:03:54;-1.40;99.90
10046;DHT22;5063;50.878;4.742;2023-02-28T04:06:21;-1.10;99.90
10046;DHT22;5063;50.878;4.742;2023-02-28T04:08:49;-1.00;99.90
10046;DHT22;5063;50.878;4.742;2023-02-28T04:11:22;-1.00;99.90
10046;DHT22;5063;50.878;4.742;2023-02-28T04:13:49;-1.00;99.90
10046;DHT22;5063;50.878;4.742;2023-02-28T04:16:15;-0.90;99.90
10046;DHT22;5063;50.878;4.742;2023-02-28T04:18:42;-0.80;99.90
10046;DHT22;5063;50.878;4.742;2023-02-28T04:21:09;-0.80;99.90
10046;DHT22;5063;50.878;4.742;2023-02-28T04:23:35;-1.00;99.90
10046;DHT22;5063;50.878;4.742;2023-02-28T04:26:01;-1.00;99.90
10046;DHT22;5063;50.878;4.742;2023-02-28T04:28:27;-0.70;99.90
10046;DHT22;5063;50.878;4.742;2023-02-28T04:31:02;-0.70;99.90
10046;DHT22;5063;50.878;4.742;2023-02-28T04:33:29;-0.50;99.90
10046;DHT22;5063;50.878;4.742;2023-02-28T04:36:03;-0.50;99.90
10046;DHT22;5063;50.878;4.742;2023-02-28T04:38:37;-0.60;99.90
10046;DHT22;5063;50.878;4.742;2023-02-28T04:41:03;-0.50;99.90
10046;DHT22;5063;50.878;4.742;2023-02-28T04:43:30;-0.60;99.90
10046;DHT22;5063;50.878;4.742;2023-02-28T04:45:57;-0.80;99.90
10046;DHT22;5063;50.878;4.742;2023-02-28T04:48:30;-0.70;99.90
10046;DHT22;5063;50.878;4.742;2023-02-28T04:51:23;-0.90;99.90
10046;DHT22;5063;50.878;4.742;2023-02-28T04:53:49;-1.00;99.90
10046;DHT22;5063;50.878;4.742;2023-02-28T04:56:16;-1.00;99.90
10046;DHT22;5063;50.878;4.742;2023-02-28T04:58:43;-0.80;99.90
10046;DHT22;5063;50.878;4.742;2023-02-28T05:01:21;-0.90;99.90
10046;DHT22;5063;50.878;4.742;2023-02-28T05:03:47;-0.70;99.90
10046;DHT22;5063;50.878;4.742;2023-02-28T05:06:13;-0.80;99.90
10046;DHT22;5063;50.878;4.742;2023-02-28T05:08:40;-0.80;99.90
10046;DHT22;5063;50.878;4.742;2023-02-28T05:11:18;-0.70;99.90
10046;DHT22;5063;50.878;4.742;2023-02-28T05:13:45;-0.60;99.90
10046;DHT22;5063;50.878;4.742;2023-02-28T05:16:11;-0.60;99.90
10046;DHT22;5063;50.878;4.742;2023-02-28T05:18:37;-0.40;99.90
10046;DHT22;5063;50.878;4.742;2023-02-28T05:21:03;-0.50;99.90
10046;DHT22;5063;50.878;4.742;2023-02-28T05:23:29;-0.40;99.90
10046;DHT22;5063;50.878;4.742;2023-02-28T05:25:55;-0.20;99.90
10046;DHT22;5063;50.878;4.742;2023-02-28T05:28:21;-0.30;99.90
10046;DHT22;5063;50.878;4.742;2023-02-28T05:30:47;-0.30;99.90
10046;DHT22;5063;50.878;4.742;2023-02-28T05:33:14;-0.20;99.90
10046;DHT22;5063;50.878;4.742;2023-02-28T05:35:40;-0.20;99.90
10046;DHT22;5063;50.878;4.742;2023-02-28T05:38:07;-0.20;99.90
10046;DHT22;5063;50.878;4.742;2023-02-28T05:40:33;-0.30;99.90
10046;DHT22;5063;50.878;4.742;2023-02-28T05:42:58;-0.40;99.90
10046;DHT22;5063;50.878;4.742;2023-02-28T05:45:24;-0.50;99.90
10046;DHT22;5063;50.878;4.742;2023-02-28T05:47:53;-0.30;99.90
10046;DHT22;5063;50.878;4.742;2023-02-28T05:50:19;-0.60;99.90
10046;DHT22;5063;50.878;4.742;2023-02-28T05:52:52;-0.50;99.90
10046;DHT22;5063;50.878;4.742;2023-02-28T05:55:18;-0.80;99.90
10046;DHT22;5063;50.878;4.742;2023-02-28T05:57:44;-0.80;99.90
10046;DHT22;5063;50.878;4.742;2023-02-28T06:00:10;-0.70;99.90
10046;DHT22;5063;50.878;4.742;2023-02-28T06:02:38;-0.70;99.90
10046;DHT22;5063;50.878;4.742;2023-02-28T06:05:04;-0.80;99.90
10046;DHT22;5063;50.878;4.742;2023-02-28T06:07:30;-1.00;99.90
10046;DHT22;5063;50.878;4.742;2023-02-28T06:09:56;-0.90;99.90
10046;DHT22;5063;50.878;4.742;2023-02-28T06:12:21;-0.90;99.90
10046;DHT22;5063;50.878;4.742;2023-02-28T06:14:47;-0.80;99.90
10046;DHT22;5063;50.878;4.742;2023-02-28T06:17:13;-0.90;99.90
10046;DHT22;5063;50.878;4.742;2023-02-28T06:19:38;-0.80;99.90
10046;DHT22;5063;50.878;4.742;2023-02-28T06:22:06;-0.70;99.90
10046;DHT22;5063;50.878;4.742;2023-02-28T06:24:32;-0.70;99.90
10046;DHT22;5063;50.878;4.742;2023-02-28T06:26:58;-0.80;99.90
10046;DHT22;5063;50.878;4.742;2023-02-28T06:29:31;-0.70;99.90
10046;DHT22;5063;50.878;4.742;2023-02-28T06:31:57;-0.90;99.90
10046;DHT22;5063;50.878;4.742;2023-02-28T06:34:23;-0.90;99.90
10046;DHT22;5063;50.878;4.742;2023-02-28T06:36:50;-0.90;99.90
10046;DHT22;5063;50.878;4.742;2023-02-28T06:39:16;-0.90;99.90
10046;DHT22;5063;50.878;4.742;2023-02-28T06:41:42;-0.80;99.90
10046;DHT22;5063;50.878;4.742;2023-02-28T06:44:17;-0.80;99.90
10046;DHT22;5063;50.878;4.742;2023-02-28T06:46:44;-0.60;99.90
10046;DHT22;5063;50.878;4.742;2023-02-28T06:49:11;-0.80;99.90
10046;DHT22;5063;50.878;4.742;2023-02-28T06:51:41;-0.60;99.90
10046;DHT22;5063;50.878;4.742;2023-02-28T06:54:10;-0.60;99.90
10046;DHT22;5063;50.878;4.742;2023-02-28T06:56:36;-0.70;99.90
10046;DHT22;5063;50.878;4.742;2023-02-28T06:59:02;-1.00;99.90
10046;DHT22;5063;50.878;4.742;2023-02-28T07:01:29;-1.00;99.90
10046;DHT22;5063;50.878;4.742;2023-02-28T07:03:57;-1.00;99.90
10046;DHT22;5063;50.878;4.742;2023-02-28T07:06:23;-0.80;99.90
10046;DHT22;5063;50.878;4.742;2023-02-28T07:08:51;-0.80;99.90
10046;DHT22;5063;50.878;4.742;2023-02-28T07:11:19;-0.80;99.90
10046;DHT22;5063;50.878;4.742;2023-02-28T07:13:45;-0.50;99.90
10046;DHT22;5063;50.878;4.742;2023-02-28T07:16:13;-0.40;99.90
10046;DHT22;5063;50.878;4.742;2023-02-28T07:18:39;0.20;99.90
10046;DHT22;5063;50.878;4.742;2023-02-28T07:21:07;0.70;99.90
10046;DHT22;5063;50.878;4.742;2023-02-28T07:23:34;1.90;99.90
10046;DHT22;5063;50.878;4.742;2023-02-28T07:26:00;3.40;99.90
10046;DHT22;5063;50.878;4.742;2023-02-28T07:28:26;4.50;99.90
10046;DHT22;5063;50.878;4.742;2023-02-28T07:30:52;5.50;99.90
10046;DHT22;5063;50.878;4.742;2023-02-28T07:33:18;6.50;99.90
10046;DHT22;5063;50.878;4.742;2023-02-28T07:35:44;7.20;99.90
10046;DHT22;5063;50.878;4.742;2023-02-28T07:38:10;7.80;99.90
10046;DHT22;5063;50.878;4.742;2023-02-28T07:40:36;8.40;99.90
10046;DHT22;5063;50.878;4.742;2023-02-28T07:43:03;8.90;99.90
10046;DHT22;5063;50.878;4.742;2023-02-28T07:45:29;9.10;99.90
10046;DHT22;5063;50.878;4.742;2023-02-28T07:47:55;9.00;99.90
10046;DHT22;5063;50.878;4.742;2023-02-28T07:50:21;8.30;99.90
10046;DHT22;5063;50.878;4.742;2023-02-28T07:52:47;7.40;99.90
10046;DHT22;5063;50.878;4.742;2023-02-28T07:55:13;6.60;99.90
10046;DHT22;5063;50.878;4.742;2023-02-28T07:57:40;6.40;99.90
10046;DHT22;5063;50.878;4.742;2023-02-28T08:00:08;6.50;99.90
10046;DHT22;5063;50.878;4.742;2023-02-28T08:02:36;6.60;99.90
10046;DHT22;5063;50.878;4.742;2023-02-28T08:05:02;6.40;99.90
10046;DHT22;5063;50.878;4.742;2023-02-28T08:07:28;6.40;99.90
10046;DHT22;5063;50.878;4.742;2023-02-28T08:09:54;6.00;99.90
10046;DHT22;5063;50.878;4.742;2023-02-28T08:12:20;5.50;99.90
10046;DHT22;5063;50.878;4.742;2023-02-28T08:14:46;5.00;99.90
10046;DHT22;5063;50.878;4.742;2023-02-28T08:17:11;5.00;99.90
10046;DHT22;5063;50.878;4.742;2023-02-28T08:19:37;4.40;99.90
10046;DHT22;5063;50.878;4.742;2023-02-28T08:22:03;4.00;99.90
10046;DHT22;5063;50.878;4.742;2023-02-28T08:24:29;3.90;99.90
10046;DHT22;5063;50.878;4.742;2023-02-28T08:26:55;3.50;99.90
10046;DHT22;5063;50.878;4.742;2023-02-28T08:29:21;3.60;99.90
10046;DHT22;5063;50.878;4.742;2023-02-28T08:31:47;3.70;99.90
10046;DHT22;5063;50.878;4.742;2023-02-28T08:34:15;3.80;99.90
10046;DHT22;5063;50.878;4.742;2023-02-28T08:36:41;3.90;99.90
10046;DHT22;5063;50.878;4.742;2023-02-28T08:39:09;4.10;99.90
10046;DHT22;5063;50.878;4.742;2023-02-28T08:41:35;4.20;99.90
10046;DHT22;5063;50.878;4.742;2023-02-28T08:44:02;4.40;99.90
10046;DHT22;5063;50.878;4.742;2023-02-28T08:46:28;4.60;99.90
10046;DHT22;5063;50.878;4.742;2023-02-28T08:48:55;4.60;99.90
10046;DHT22;5063;50.878;4.742;2023-02-28T08:51:21;4.40;99.90
10046;DHT22;5063;50.878;4.742;2023-02-28T08:53:57;4.50;99.90
10046;DHT22;5063;50.878;4.742;2023-02-28T08:56:23;4.90;99.90
10046;DHT22;5063;50.878;4.742;2023-02-28T08:58:50;5.80;99.90
10046;DHT22;5063;50.878;4.742;2023-02-28T09:01:18;6.60;99.90
10046;DHT22;5063;50.878;4.742;2023-02-28T09:03:45;7.20;99.90
10046;DHT22;5063;50.878;4.742;2023-02-28T09:06:12;7.60;99.90
10046;DHT22;5063;50.878;4.742;2023-02-28T09:08:38;6.80;99.90
10046;DHT22;5063;50.878;4.742;2023-02-28T09:11:04;5.70;99.90
10046;DHT22;5063;50.878;4.742;2023-02-28T09:13:30;4.80;99.90
10046;DHT22;5063;50.878;4.742;2023-02-28T09:15:59;4.20;99.90
10046;DHT22;5063;50.878;4.742;2023-02-28T09:18:25;4.10;99.90
10046;DHT22;5063;50.878;4.742;2023-02-28T09:20:51;3.90;99.90
10046;DHT22;5063;50.878;4.742;2023-02-28T09:23:17;3.80;99.90
10046;DHT22;5063;50.878;4.742;2023-02-28T09:25:48;3.60;99.90
10046;DHT22;5063;50.878;4.742;2023-02-28T09:28:14;3.60;99.90
10046;DHT22;5063;50.878;4.742;2023-02-28T09:30:52;3.60;99.90
10046;DHT22;5063;50.878;4.742;2023-02-28T09:33:18;3.70;99.90
10046;DHT22;5063;50.878;4.742;2023-02-28T09:35:49;3.70;99.90
10046;DHT22;5063;50.878;4.742;2023-02-28T09:38:15;3.70;99.90
10046;DHT22;5063;50.878;4.742;2023-02-28T09:40:50;3.70;99.90
10046;DHT22;5063;50.878;4.742;2023-02-28T09:43:20;3.80;99.90
10046;DHT22;5063;50.878;4.742;2023-02-28T09:46:48;3.90;99.90
10046;DHT22;5063;50.878;4.742;2023-02-28T09:48:54;3.90;99.90
10046;DHT22;5063;50.878;4.742;2023-02-28T09:51:36;3.80;99.90
10046;DHT22;5063;50.878;4.742;2023-02-28T09:54:03;3.80;99.90
10046;DHT22;5063;50.878;4.742;2023-02-28T09:56:40;3.80;99.90
10046;DHT22;5063;50.878;4.742;2023-02-28T09:59:23;3.80;99.90
10046;DHT22;5063;50.878;4.742;2023-02-28T10:04:50;4.00;99.90
10046;DHT22;5063;50.878;4.742;2023-02-28T10:10:33;4.10;99.90
10046;DHT22;5063;50.878;4.742;2023-02-28T10:13:03;4.00;99.90
10046;DHT22;5063;50.878;4.742;2023-02-28T10:15:31;4.10;99.90
10046;DHT22;5063;50.878;4.742;2023-02-28T10:18:02;4.40;99.90
10046;DHT22;5063;50.878;4.742;2023-02-28T10:20:33;4.10;99.90
10046;DHT22;5063;50.878;4.742;2023-02-28T10:25:29;4.20;99.90
10046;DHT22;5063;50.878;4.742;2023-02-28T10:28:15;4.20;99.90
10046;DHT22;5063;50.878;4.742;2023-02-28T10:30:45;4.40;99.90
10046;DHT22;5063;50.878;4.742;2023-02-28T10:33:24;4.40;99.90
10046;DHT22;5063;50.878;4.742;2023-02-28T10:35:51;4.70;99.90
10046;DHT22;5063;50.878;4.742;2023-02-28T10:38:24;4.40;99.90
10046;DHT22;5063;50.878;4.742;2023-02-28T10:40:50;4.50;99.90
10046;DHT22;5063;50.878;4.742;2023-02-28T10:48:44;4.50;99.90
10046;DHT22;5063;50.878;4.742;2023-02-28T10:51:12;4.50;99.90
10046;DHT22;5063;50.878;4.742;2023-02-28T10:53:52;4.60;99.90
10046;DHT22;5063;50.878;4.742;2023-02-28T10:56:24;4.70;99.90
10046;DHT22;5063;50.878;4.742;2023-02-28T10:58:56;4.90;99.90
10046;DHT22;5063;50.878;4.742;2023-02-28T11:01:44;4.30;99.90
10046;DHT22;5063;50.878;4.742;2023-02-28T11:07:18;4.70;99.90
10046;DHT22;5063;50.878;4.742;2023-02-28T11:10:16;5.00;99.90
10046;DHT22;5063;50.878;4.742;2023-02-28T11:12:45;5.10;99.90
10046;DHT22;5063;50.878;4.742;2023-02-28T11:20:28;5.50;99.90
10046;DHT22;5063;50.878;4.742;2023-02-28T11:22:56;5.40;99.90
10046;DHT22;5063;50.878;4.742;2023-02-28T11:25:25;5.30;99.90
10046;DHT22;5063;50.878;4.742;2023-02-28T11:27:54;5.40;99.90
10046;DHT22;5063;50.878;4.742;2023-02-28T11:30:30;5.40;99.90
10046;DHT22;5063;50.878;4.742;2023-02-28T11:32:57;5.40;99.90
10046;DHT22;5063;50.878;4.742;2023-02-28T11:35:38;5.40;99.90
10046;DHT22;5063;50.878;4.742;2023-02-28T11:38:09;5.50;99.90
10046;DHT22;5063;50.878;4.742;2023-02-28T11:46:24;5.40;99.90
10046;DHT22;5063;50.878;4.742;2023-02-28T11:51:56;5.30;99.90
10046;DHT22;5063;50.878;4.742;2023-02-28T11:54:33;5.40;99.90
10046;DHT22;5063;50.878;4.742;2023-02-28T11:57:25;5.60;99.90
10046;DHT22;5063;50.878;4.742;2023-02-28T12:13:26;6.20;99.90
10046;DHT22;5063;50.878;4.742;2023-02-28T12:26:39;5.80;99.90
10046;DHT22;5063;50.878;4.742;2023-02-28T12:30:12;5.80;99.90
10046;DHT22;5063;50.878;4.742;2023-02-28T12:32:23;5.80;99.90
10046;DHT22;5063;50.878;4.742;2023-02-28T12:35:03;5.80;99.90
10046;DHT22;5063;50.878;4.742;2023-02-28T12:37:47;6.00;99.90
10046;DHT22;5063;50.878;4.742;2023-02-28T12:40:21;6.00;99.90
10046;DHT22;5063;50.878;4.742;2023-02-28T12:42:55;6.00;99.90
10046;DHT22;5063;50.878;4.742;2023-02-28T12:46:10;5.90;99.90
10046;DHT22;5063;50.878;4.742;2023-02-28T12:48:26;5.90;99.80
10046;DHT22;5063;50.878;4.742;2023-02-28T12:50:53;6.00;99.90
10046;DHT22;5063;50.878;4.742;2023-02-28T12:59:29;5.90;99.10
10046;DHT22;5063;50.878;4.742;2023-02-28T13:09:56;6.00;98.70
10046;DHT22;5063;50.878;4.742;2023-02-28T13:12:23;6.00;98.10
10046;DHT22;5063;50.878;4.742;2023-02-28T13:14:49;6.10;98.70
10046;DHT22;5063;50.878;4.742;2023-02-28T13:17:20;6.00;97.90
10046;DHT22;5063;50.878;4.742;2023-02-28T13:19:57;6.00;98.10
10046;DHT22;5063;50.878;4.742;2023-02-28T13:22:42;6.10;98.70
10046;DHT22;5063;50.878;4.742;2023-02-28T13:27:48;6.20;99.00
10046;DHT22;5063;50.878;4.742;2023-02-28T13:33:30;6.10;97.90
10046;DHT22;5063;50.878;4.742;2023-02-28T13:57:35;6.10;97.60
10046;DHT22;5063;50.878;4.742;2023-02-28T14:00:35;6.20;97.60
10046;DHT22;5063;50.878;4.742;2023-02-28T14:03:23;6.00;96.60
10046;DHT22;5063;50.878;4.742;2023-02-28T14:06:16;6.30;97.10
10046;DHT22;5063;50.878;4.742;2023-02-28T14:11:35;6.10;97.40
10046;DHT22;5063;50.878;4.742;2023-02-28T14:14:01;6.20;97.60
10046;DHT22;5063;50.878;4.742;2023-02-28T14:16:37;6.30;97.90
10046;DHT22;5063;50.878;4.742;2023-02-28T14:19:15;6.40;97.40
10046;DHT22;5063;50.878;4.742;2023-02-28T14:38:05;6.30;98.50
10046;DHT22;5063;50.878;4.742;2023-02-28T14:40:34;6.30;98.30
10046;DHT22;5063;50.878;4.742;2023-02-28T14:43:03;6.30;98.40
10046;DHT22;5063;50.878;4.742;2023-02-28T14:45:31;6.40;98.10
10046;DHT22;5063;50.878;4.742;2023-02-28T14:47:58;6.40;98.10
10046;DHT22;5063;50.878;4.742;2023-02-28T14:50:31;6.70;98.10
10046;DHT22;5063;50.878;4.742;2023-02-28T14:52:58;6.40;97.80
10046;DHT22;5063;50.878;4.742;2023-02-28T14:55:36;6.40;98.00
10046;DHT22;5063;50.878;4.742;2023-02-28T14:58:04;6.40;98.30
10046;DHT22;5063;50.878;4.742;2023-02-28T15:00:47;6.40;98.50
10046;DHT22;5063;50.878;4.742;2023-02-28T15:03:30;6.50;98.20
10046;DHT22;5063;50.878;4.742;2023-02-28T15:06:01;6.40;98.50
10046;DHT22;5063;50.878;4.742;2023-02-28T15:08:31;6.30;98.10
10046;DHT22;5063;50.878;4.742;2023-02-28T15:11:13;6.30;97.40
10046;DHT22;5063;50.878;4.742;2023-02-28T15:13:49;6.10;97.30
10046;DHT22;5063;50.878;4.742;2023-02-28T15:18:49;6.20;97.70
10046;DHT22;5063;50.878;4.742;2023-02-28T15:21:19;6.20;98.20
10046;DHT22;5063;50.878;4.742;2023-02-28T15:24:03;6.20;97.70
10046;DHT22;5063;50.878;4.742;2023-02-28T15:26:33;6.20;98.30
10046;DHT22;5063;50.878;4.742;2023-02-28T15:29:03;6.20;98.70
10046;DHT22;5063;50.878;4.742;2023-02-28T15:31:33;6.20;99.30
10046;DHT22;5063;50.878;4.742;2023-02-28T15:34:05;6.20;98.90
10046;DHT22;5063;50.878;4.742;2023-02-28T15:36:33;6.20;99.50
10046;DHT22;5063;50.878;4.742;2023-02-28T15:39:17;6.20;99.70
10046;DHT22;5063;50.878;4.742;2023-02-28T15:41:44;6.20;99.80
10046;DHT22;5063;50.878;4.742;2023-02-28T15:44:37;6.50;99.40
10046;DHT22;5063;50.878;4.742;2023-02-28T15:47:14;6.50;99.30
10046;DHT22;5063;50.878;4.742;2023-02-28T15:52:19;6.20;99.70
10046;DHT22;5063;50.878;4.742;2023-02-28T15:54:46;6.20;99.80
10046;DHT22;5063;50.878;4.742;2023-02-28T15:57:31;6.10;99.40
10046;DHT22;5063;50.878;4.742;2023-02-28T16:00:00;6.20;99.90
10046;DHT22;5063;50.878;4.742;2023-02-28T16:02:32;6.60;99.90
10046;DHT22;5063;50.878;4.742;2023-02-28T16:07:38;6.30;99.90
10046;DHT22;5063;50.878;4.742;2023-02-28T16:10:05;6.40;99.80
10046;DHT22;5063;50.878;4.742;2023-02-28T16:12:32;7.40;98.80
10046;DHT22;5063;50.878;4.742;2023-02-28T16:15:01;7.50;97.80
10046;DHT22;5063;50.878;4.742;2023-02-28T16:17:33;7.30;97.90
10046;DHT22;5063;50.878;4.742;2023-02-28T16:20:00;6.70;98.10
10046;DHT22;5063;50.878;4.742;2023-02-28T16:22:26;6.50;98.40
10046;DHT22;5063;50.878;4.742;2023-02-28T16:24:52;6.30;98.70
10046;DHT22;5063;50.878;4.742;2023-02-28T16:27:32;6.20;99.20
10046;DHT22;5063;50.878;4.742;2023-02-28T16:29:58;6.20;99.40
10046;DHT22;5063;50.878;4.742;2023-02-28T16:32:25;6.20;99.60
10046;DHT22;5063;50.878;4.742;2023-02-28T16:34:51;6.10;99.40
10046;DHT22;5063;50.878;4.742;2023-02-28T16:37:17;6.10;99.70
10046;DHT22;5063;50.878;4.742;2023-02-28T16:39:44;6.10;99.60
10046;DHT22;5063;50.878;4.742;2023-02-28T16:42:23;6.00;99.90
10046;DHT22;5063;50.878;4.742;2023-02-28T16:44:50;5.90;99.90
10046;DHT22;5063;50.878;4.742;2023-02-28T16:47:17;5.80;99.90
10046;DHT22;5063;50.878;4.742;2023-02-28T16:49:44;5.70;99.90
10046;DHT22;5063;50.878;4.742;2023-02-28T16:52:10;5.60;99.90
10046;DHT22;5063;50.878;4.742;2023-02-28T16:54:38;5.50;99.90
10046;DHT22;5063;50.878;4.742;2023-02-28T16:57:05;5.40;99.90
10046;DHT22;5063;50.878;4.742;2023-02-28T16:59:32;5.40;99.90
10046;DHT22;5063;50.878;4.742;2023-02-28T17:01:58;5.50;99.90
10046;DHT22;5063;50.878;4.742;2023-02-28T17:04:25;5.20;99.90
10046;DHT22;5063;50.878;4.742;2023-02-28T17:06:51;5.10;99.90
10046;DHT22;5063;50.878;4.742;2023-02-28T17:09:22;4.90;99.90
10046;DHT22;5063;50.878;4.742;2023-02-28T17:11:48;4.90;99.90
10046;DHT22;5063;50.878;4.742;2023-02-28T17:14:15;4.70;99.90
10046;DHT22;5063;50.878;4.742;2023-02-28T17:16:42;4.80;99.90
10046;DHT22;5063;50.878;4.742;2023-02-28T17:19:15;4.60;99.90
10046;DHT22;5063;50.878;4.742;2023-02-28T17:21:42;4.70;99.90
10046;DHT22;5063;50.878;4.742;2023-02-28T17:24:09;4.50;99.90
10046;DHT22;5063;50.878;4.742;2023-02-28T17:26:39;4.40;99.90
10046;DHT22;5063;50.878;4.742;2023-02-28T17:29:11;4.40;99.90
10046;DHT22;5063;50.878;4.742;2023-02-28T17:31:38;4.30;99.90
10046;DHT22;5063;50.878;4.742;2023-02-28T17:34:04;4.20;99.90
10046;DHT22;5063;50.878;4.742;2023-02-28T17:36:30;4.20;99.90
10046;DHT22;5063;50.878;4.742;2023-02-28T17:38:59;4.10;99.90
10046;DHT22;5063;50.878;4.742;2023-02-28T17:41:24;4.00;99.90
10046;DHT22;5063;50.878;4.742;2023-02-28T17:43:52;3.80;99.90
10046;DHT22;5063;50.878;4.742;2023-02-28T17:46:23;3.90;99.90
10046;DHT22;5063;50.878;4.742;2023-02-28T17:48:50;3.80;99.90
10046;DHT22;5063;50.878;4.742;2023-02-28T17:51:17;3.80;99.90
10046;DHT22;5063;50.878;4.742;2023-02-28T17:53:44;3.80;99.90
10046;DHT22;5063;50.878;4.742;2023-02-28T17:56:15;3.70;99.90
10046;DHT22;5063;50.878;4.742;2023-02-28T17:58:41;3.60;99.90
10046;DHT22;5063;50.878;4.742;2023-02-28T18:01:07;3.50;99.90
10046;DHT22;5063;50.878;4.742;2023-02-28T18:03:33;3.50;99.90
10046;DHT22;5063;50.878;4.742;2023-02-28T18:05:59;3.60;99.90
10046;DHT22;5063;50.878;4.742;2023-02-28T18:08:25;3.30;99.90
10046;DHT22;5063;50.878;4.742;2023-02-28T18:10:51;3.40;99.90
10046;DHT22;5063;50.878;4.742;2023-02-28T18:13:17;3.10;99.90
10046;DHT22;5063;50.878;4.742;2023-02-28T18:15:43;3.00;99.90
10046;DHT22;5063;50.878;4.742;2023-02-28T18:18:09;2.70;99.90
10046;DHT22;5063;50.878;4.742;2023-02-28T18:20:35;2.70;99.90
10046;DHT22;5063;50.878;4.742;2023-02-28T18:23:01;2.80;99.90
10046;DHT22;5063;50.878;4.742;2023-02-28T18:25:27;2.60;99.90
10046;DHT22;5063;50.878;4.742;2023-02-28T18:27:53;2.50;99.90
10046;DHT22;5063;50.878;4.742;2023-02-28T18:30:25;2.30;99.90
10046;DHT22;5063;50.878;4.742;2023-02-28T18:32:51;2.30;99.90
10046;DHT22;5063;50.878;4.742;2023-02-28T18:35:17;2.10;99.90
10046;DHT22;5063;50.878;4.742;2023-02-28T18:38:07;2.00;99.90
10046;DHT22;5063;50.878;4.742;2023-02-28T18:40:33;2.00;99.90
10046;DHT22;5063;50.878;4.742;2023-02-28T18:43:00;2.00;99.90
10046;DHT22;5063;50.878;4.742;2023-02-28T18:45:26;1.90;99.90
10046;DHT22;5063;50.878;4.742;2023-02-28T18:47:52;1.90;99.90